createdAt,value
2023-04-27T00:02:08.297Z,5.01
2023-04-27T00:07:11.184Z,5.14
2023-04-27T00:12:13.949Z,5.33
2023-04-27T00:17:18.341Z,5.43
2023-04-27T00:22:21.333Z,5.47
2023-04-27T00:27:24.116Z,5.50
2023-04-27T00:32:28.268Z,5.53
2023-04-27T00:37:31.248Z,5.47
2023-04-27T00:42:34.069Z,5.33
2023-04-27T00:47:38.609Z,5.26
2023-04-27T00:52:42.417Z,5.17
2023-04-27T00:57:45.153Z,5.15
2023-04-27T01:02:49.554Z,5.09
2023-04-27T01:07:53.735Z,4.98
2023-04-27T01:12:57.553Z,4.92
2023-04-27T01:18:02.372Z,4.91
2023-04-27T01:23:05.276Z,4.92
2023-04-27T01:28:09.437Z,4.81
2023-04-27T01:33:13.469Z,4.88
2023-04-27T01:38:16.295Z,4.82
2023-04-27T01:43:21.445Z,4.67
2023-04-27T01:48:24.416Z,4.59
2023-04-27T01:53:27.234Z,4.59
2023-04-27T01:58:31.553Z,4.48
2023-04-27T02:03:34.571Z,4.43
2023-04-27T02:08:37.640Z,4.45
2023-04-27T02:13:41.769Z,4.35
2023-04-27T02:18:44.639Z,4.11
2023-04-27T02:23:47.553Z,4.01
2023-04-27T02:28:52.315Z,4.02
2023-04-27T02:33:55.814Z,3.98
2023-04-27T02:39:01.590Z,3.93
2023-04-27T02:44:05.973Z,3.85
2023-04-27T02:49:08.766Z,3.64
2023-04-27T02:54:11.544Z,3.25
2023-04-27T02:59:16.022Z,3.29
2023-04-27T03:04:19.552Z,3.17
2023-04-27T03:09:22.402Z,3.19
2023-04-27T03:14:27.017Z,3.26
2023-04-27T03:19:30.068Z,3.22
2023-04-27T03:24:34.303Z,3.12
2023-04-27T03:29:38.451Z,3.03
2023-04-27T03:34:41.340Z,3.11
2023-04-27T03:39:45.084Z,3.11
2023-04-27T03:44:49.987Z,3.00
2023-04-27T03:49:52.876Z,3.08
2023-04-27T03:54:55.875Z,3.09
2023-04-27T04:00:00.051Z,2.99
2023-04-27T04:05:02.975Z,3.02
2023-04-27T04:10:06.936Z,3.03
2023-04-27T04:15:11.516Z,2.93
2023-04-27T04:20:14.567Z,2.85
2023-04-27T04:25:17.366Z,2.84
2023-04-27T04:30:22.884Z,2.87
2023-04-27T04:35:25.683Z,3.00
2023-04-27T04:40:29.025Z,2.99
2023-04-27T04:45:33.288Z,3.01
2023-04-27T04:50:36.306Z,3.01
2023-04-27T04:55:39.200Z,3.06
2023-04-27T05:00:45.312Z,3.12
2023-04-27T05:05:49.198Z,3.19
2023-04-27T05:10:52.030Z,3.28
2023-04-27T05:15:56.330Z,3.38
2023-04-27T05:20:59.239Z,3.48
2023-04-27T05:26:02.000Z,3.55
2023-04-27T05:31:06.446Z,3.73
2023-04-27T05:36:09.901Z,3.86
2023-04-27T05:41:12.674Z,3.93
2023-04-27T05:46:17.118Z,4.03
2023-04-27T05:51:19.935Z,4.15
2023-04-27T05:56:23.371Z,4.09
2023-04-27T06:01:27.563Z,4.02
2023-04-27T06:06:32.752Z,4.15
2023-04-27T06:11:35.690Z,4.16
2023-04-27T06:16:40.570Z,4.57
2023-04-27T06:21:43.806Z,4.35
2023-04-27T06:26:46.739Z,4.97
2023-04-27T06:31:50.972Z,5.48
2023-04-27T06:36:53.861Z,6.22
2023-04-27T06:41:56.673Z,6.85
2023-04-27T06:47:02.597Z,7.14
2023-04-27T06:52:06.766Z,7.43
2023-04-27T06:57:09.748Z,7.64
2023-04-27T07:02:14.020Z,7.86
2023-04-27T07:07:16.817Z,8.02
2023-04-27T07:12:19.567Z,8.15
2023-04-27T07:17:23.734Z,8.59
2023-04-27T07:22:26.849Z,9.06
2023-04-27T07:27:31.883Z,9.07
2023-04-27T07:32:36.822Z,9.32
2023-04-27T07:37:40.424Z,9.47
2023-04-27T07:42:43.285Z,9.49
2023-04-27T07:47:47.583Z,9.60
2023-04-27T07:52:50.707Z,9.71
2023-04-27T07:57:54.534Z,9.87
2023-04-27T08:02:58.737Z,10.09
2023-04-27T08:08:01.907Z,10.36
2023-04-27T08:13:05.044Z,10.00
2023-04-27T08:18:09.138Z,10.38
2023-04-27T08:23:12.400Z,10.98
2023-04-27T08:28:16.265Z,11.53
2023-04-27T08:33:20.368Z,11.76
2023-04-27T08:38:25.021Z,11.16
2023-04-27T08:43:28.480Z,11.22
2023-04-27T08:48:32.547Z,12.14
2023-04-27T08:53:35.674Z,12.66
2023-04-27T08:58:39.317Z,12.38
2023-04-27T09:08:50.610Z,13.11
2023-04-27T09:13:53.498Z,12.33
2023-04-27T09:18:59.408Z,13.02
2023-04-27T09:24:12.309Z,13.83
2023-04-27T09:29:15.255Z,14.46
2023-04-27T09:34:19.916Z,14.61
2023-04-27T09:39:23.192Z,14.30
2023-04-27T09:44:27.457Z,14.21
2023-04-27T09:49:35.499Z,14.87
2023-04-27T09:54:38.721Z,14.39
2023-04-27T09:59:58.719Z,14.65
2023-04-27T10:05:33.291Z,12.99
2023-04-27T10:10:48.707Z,13.32
2023-04-27T10:15:52.383Z,11.39
2023-04-27T10:20:56.553Z,12.21
2023-04-27T10:26:08.306Z,12.92
2023-04-27T10:31:11.916Z,14.43
2023-04-27T10:36:16.730Z,15.34
2023-04-27T10:41:19.512Z,14.05
2023-04-27T10:46:22.395Z,13.21
2023-04-27T10:51:28.600Z,12.65
2023-04-27T10:56:33.495Z,14.23
2023-04-27T11:01:36.916Z,15.69
2023-04-27T11:06:45.976Z,15.95
2023-04-27T11:11:49.069Z,14.09
2023-04-27T11:16:52.189Z,14.45
2023-04-27T11:22:04.257Z,15.67
2023-04-27T11:27:07.323Z,15.29
2023-04-27T11:32:10.196Z,15.19
2023-04-27T11:37:23.482Z,14.75
2023-04-27T11:42:28.435Z,15.07
2023-04-27T11:47:32.736Z,15.21
2023-04-27T11:52:38.175Z,16.32
2023-04-27T11:57:41.146Z,17.07
2023-04-27T12:02:45.284Z,16.79
2023-04-27T12:07:49.527Z,14.96
2023-04-27T12:12:52.360Z,16.87
2023-04-27T12:17:55.177Z,17.95
2023-04-27T12:22:59.419Z,19.59
2023-04-27T12:28:02.583Z,19.40
2023-04-27T12:33:10.881Z,19.39
2023-04-27T12:38:15.140Z,18.76
2023-04-27T12:43:17.950Z,18.04
2023-04-27T12:48:20.727Z,17.73
2023-04-27T12:53:24.991Z,16.59
2023-04-27T12:58:27.739Z,17.86
2023-04-27T13:03:30.771Z,18.49
2023-04-27T13:08:35.105Z,19.72
2023-04-27T13:13:37.909Z,19.83
2023-04-27T13:18:46.239Z,20.08
2023-04-27T13:23:51.178Z,19.94
2023-04-27T13:28:53.913Z,19.35
2023-04-27T13:33:56.987Z,19.68
2023-04-27T13:39:01.915Z,19.68
2023-04-27T13:44:04.758Z,19.68
2023-04-27T13:49:07.574Z,18.56
2023-04-27T13:54:12.037Z,18.34
2023-04-27T13:59:16.573Z,18.14
2023-04-27T14:04:19.579Z,18.45
2023-04-27T14:09:26.925Z,18.35
2023-04-27T14:14:29.859Z,18.41
2023-04-27T14:19:32.934Z,19.24
2023-04-27T14:24:37.056Z,19.77
2023-04-27T14:29:39.819Z,20.15
2023-04-27T14:34:42.640Z,20.01
2023-04-27T14:39:47.184Z,19.59
2023-04-27T14:44:49.940Z,19.88
2023-04-27T14:49:52.835Z,20.32
2023-04-27T14:54:57.270Z,21.06
2023-04-27T15:00:01.211Z,20.63
2023-04-27T15:06:03.006Z,20.53
2023-04-27T15:11:07.158Z,20.55
2023-04-27T15:16:09.929Z,20.54
2023-04-27T15:21:12.652Z,20.62
2023-04-27T15:26:16.760Z,19.85
2023-04-27T15:31:19.679Z,19.60
2023-04-27T15:36:26.576Z,19.37
2023-04-27T15:41:30.782Z,19.06
2023-04-27T15:46:33.882Z,17.20
2023-04-27T15:51:36.689Z,17.50
2023-04-27T15:56:40.815Z,18.62
2023-04-27T16:01:43.661Z,18.83
2023-04-27T16:06:46.894Z,17.98
2023-04-27T16:11:51.032Z,16.98
2023-04-27T16:16:56.127Z,15.83
2023-04-27T16:22:00.077Z,15.88
2023-04-27T16:27:04.554Z,15.29
2023-04-27T16:32:07.488Z,15.31
2023-04-27T16:37:11.230Z,15.20
2023-04-27T16:42:20.583Z,15.08
2023-04-27T16:47:23.491Z,14.79
2023-04-27T16:52:26.419Z,14.62
2023-04-27T16:57:30.546Z,14.66
2023-04-27T17:02:33.462Z,14.64
2023-04-27T17:07:36.282Z,14.45
2023-04-27T17:12:40.807Z,14.31
2023-04-27T17:17:44.266Z,14.62
2023-04-27T17:22:47.195Z,14.90
2023-04-27T17:27:51.344Z,14.74
2023-04-27T17:32:54.196Z,14.44
2023-04-27T17:37:56.995Z,14.09
2023-04-27T17:43:01.085Z,13.81
2023-04-27T17:48:04.503Z,13.62
2023-04-27T17:53:07.315Z,13.10
2023-04-27T17:58:11.380Z,12.95
2023-04-27T18:03:14.365Z,12.74
2023-04-27T18:08:17.186Z,12.56
2023-04-27T18:13:21.379Z,12.44
2023-04-27T18:18:25.353Z,12.28
2023-04-27T18:23:28.271Z,12.08
2023-04-27T18:28:32.135Z,11.92
2023-04-27T18:33:34.812Z,11.71
2023-04-27T18:38:37.419Z,11.51
2023-04-27T18:43:41.552Z,11.33
2023-04-27T18:48:44.312Z,11.26
2023-04-27T18:53:47.036Z,11.12
2023-04-27T18:58:51.618Z,10.99
2023-04-27T19:03:56.167Z,10.89
2023-04-27T19:08:59.067Z,10.87
2023-04-27T19:14:03.240Z,10.78
2023-04-27T19:19:05.992Z,10.81
2023-04-27T19:24:09.163Z,10.65
2023-04-27T19:29:13.733Z,10.50
2023-04-27T19:34:16.707Z,10.42
2023-04-27T19:39:20.748Z,10.23
2023-04-27T19:44:25.183Z,10.16
2023-04-27T19:49:32.699Z,10.01
2023-04-27T19:54:38.360Z,9.92
2023-04-27T19:59:42.918Z,9.85
2023-04-27T20:04:46.220Z,9.71
2023-04-27T20:09:49.252Z,9.59
2023-04-27T20:14:53.630Z,9.52
2023-04-27T20:19:57.155Z,9.47
2023-04-27T20:25:00.202Z,9.36
2023-04-27T20:30:05.040Z,9.28
2023-04-27T20:35:10.321Z,9.36
2023-04-27T20:40:17.409Z,9.35
2023-04-27T20:45:21.752Z,9.26
2023-04-27T20:55:54.979Z,9.16
2023-04-27T21:00:59.185Z,9.07
2023-04-27T21:06:01.987Z,9.10
2023-04-27T21:11:04.923Z,9.11
2023-04-27T21:16:09.301Z,9.12
2023-04-27T21:21:12.093Z,9.08
2023-04-27T21:26:14.841Z,9.06
2023-04-27T21:31:20.587Z,9.14
2023-04-27T21:36:23.540Z,9.17
2023-04-27T21:41:26.171Z,9.17
2023-04-27T21:46:30.392Z,9.17
2023-04-27T21:51:34.478Z,9.21
2023-04-27T21:56:37.899Z,9.13
2023-04-27T22:01:42.162Z,9.20
2023-04-27T22:06:45.042Z,9.18
2023-04-27T22:11:47.850Z,9.20
2023-04-27T22:16:52.131Z,9.21
2023-04-27T22:21:55.334Z,9.18
2023-04-27T22:26:58.382Z,9.15
2023-04-27T22:32:02.654Z,9.13
2023-04-27T22:37:05.998Z,9.12
2023-04-27T22:42:08.791Z,9.11
2023-04-27T22:47:13.144Z,9.05
2023-04-27T22:52:16.604Z,9.01
2023-04-27T22:57:19.477Z,8.99
2023-04-27T23:02:23.879Z,8.96
2023-04-27T23:12:30.188Z,8.91
2023-04-27T23:17:34.649Z,8.85
2023-04-27T23:22:39.791Z,8.83
2023-04-27T23:27:42.942Z,8.88
2023-04-27T23:32:47.177Z,8.89
2023-04-27T23:37:50.044Z,8.92
2023-04-27T23:42:53.303Z,8.89
2023-04-27T23:47:59.549Z,8.91
2023-04-27T23:53:06.005Z,8.98
2023-04-27T23:58:08.854Z,8.86
